Ketchikan, Alaska
Current Conditions -  °F | °C
As of 5:59 AM on Friday 24 Oct 2014 (Local Time) from PAKT Reporting Station
Overcast Overcast  
Wind Chill: 42°   Ceiling: 3300
Heat Index: 46°   Visibility: 10mi
Dew Point: 41°   Wind: 9mph
Humidity: 81%   Direction: 180°S
Pressure: 29.83"   Gusts: NA
Location:  55.35°N, 131.69°W
Report Text: PAKT 241359Z 18008KT 10SM OVC033 08/05 A2983 RMK AO2
Loading
Personal Weather Stations






























Interactive Weather Map
Tropical Storm Tracking
New forecast layout! Learn more

10-Day Weather Forecast

Advertisements
Track Severe Weather on mobile